Fv\men Brial — FVDB — position and weather

sailwx.info

Track history (hours):
 
Tides and Currents Weather Stations Pressure Air Temp Water Temp Dewpoint Dewpoint Depression Visibility Wind Speed Wind Dir Waves Ship Positions

Fv\men Brial

Last reported at 2018-May-08 04:34 UTC. Time now 2018-May-20 09:58 UTC.
Position N 47°27' W 005°27'.
Warning: this ship's position is 12 days out of date.

Length 15 m.

Type: Fishing. MMSI: 228251000.

Date/timePositionNaut miles runAvg speedWind from/ knotsBaromVisibWave heightAir tempDewpointWater temp
2018-May-08 04:34N 47°27' W 005°27'0 2.5
2018-May-08 04:29N 47°27' W 005°26'1 2.5
2018-May-08 03:58N 47°28' W 005°25'1 2.5
2018-May-08 03:30N 47°29' W 005°25'1 2.6
2018-May-08 03:00N 47°31' W 005°25'3 2.7
2018-May-08 01:43N 47°34' W 005°25'1 4.0
2018-May-08 01:25N 47°35' W 005°25'1 1.6
2018-May-08 01:00N 47°36' W 005°24'3 2.8
2018-May-07 23:50N 47°39' W 005°24'2 2.9
2018-May-07 23:16N 47°41' W 005°23'1 2.9
2018-May-07 23:00N 47°41' W 005°23'2 3.0
2018-May-07 22:26N 47°43' W 005°23'1 2.9
2018-May-07 22:01N 47°44' W 005°23'1 2.8
2018-May-07 21:30N 47°45' W 005°24'2 1.3
2018-May-07 20:17N 47°47' W 005°24'1 2.3
2018-May-07 19:46N 47°46' W 005°23'1 2.4
2018-May-07 19:30N 47°46' W 005°22'2 2.4
2018-May-07 18:47N 47°45' W 005°20'2 2.4
2018-May-07 18:08N 47°45' W 005°18'0 2.5
2018-May-07 17:59N 47°45' W 005°17'1 2.5
2018-May-07 17:30N 47°45' W 005°15'2 0.5
2018-May-07 13:46N 47°47' W 005°14'2 0.8
2018-May-07 11:29N 47°46' W 005°11'1 2.1
2018-May-07 11:00N 47°47' W 005°10'3 0.7
2018-May-07 07:01N 47°44' W 005°12'0 5.7
2018-May-07 07:00N 47°44' W 005°12'3 2.1
2018-May-07 05:32N 47°45' W 005°08'0 2.6
2018-May-07 05:28N 47°45' W 005°07'3 2.6
2018-May-07 04:26N 47°45' W 005°03'1 0.6
2018-May-07 02:32N 47°45' W 005°02'0 2.7
2018-May-07 02:23N 47°45' W 005°03'2 0.1
2018-May-06 02:51N 47°45' W 005°06'1 2.1
2018-May-06 02:12N 47°45' W 005°04'1 2.7
2018-May-06 01:54N 47°45' W 005°03'2 3.3
2018-May-06 01:25N 47°45' W 005°00'1 1.3
2018-May-06 00:50N 47°45' W 004°59'2 2.3
2018-May-06 00:06N 47°45' W 005°02'0 2.6
2018-May-05 23:57N 47°45' W 005°02'1 2.5
2018-May-05 23:30N 47°45' W 005°04'1 1.7
2018-May-05 23:01N 47°45' W 005°03'3 0.5
2018-May-05 17:25N 47°45' W 005°07'1 2.6
2018-May-05 16:59N 47°45' W 005°08'33 1.0
2018-May-04 06:48N 47°46' W 004°20'  
Track history (hours):
 
Tides and Currents Weather Stations Pressure Air Temp Water Temp Dewpoint Dewpoint Depression Visibility Wind Speed Wind Dir Waves Ship Positions

Fv\men Brial

Last reported at 2018-May-08 04:34 UTC. Time now 2018-May-20 09:58 UTC.
Position N 47°27' W 005°27'.
Warning: this ship's position is 12 days out of date.

Length 15 m.

Type: Fishing. MMSI: 228251000.

Date/timePositionNaut miles runAvg speedWind from/ knotsBaromVisibWave heightAir tempDewpointWater temp
2018-May-08 04:34N 47°27' W 005°27'0 2.5
2018-May-08 04:29N 47°27' W 005°26'1 2.5
2018-May-08 03:58N 47°28' W 005°25'1 2.5
2018-May-08 03:30N 47°29' W 005°25'1 2.6
2018-May-08 03:00N 47°31' W 005°25'3 2.7
2018-May-08 01:43N 47°34' W 005°25'1 4.0
2018-May-08 01:25N 47°35' W 005°25'1 1.6
2018-May-08 01:00N 47°36' W 005°24'3 2.8
2018-May-07 23:50N 47°39' W 005°24'2 2.9
2018-May-07 23:16N 47°41' W 005°23'1 2.9
2018-May-07 23:00N 47°41' W 005°23'2 3.0
2018-May-07 22:26N 47°43' W 005°23'1 2.9
2018-May-07 22:01N 47°44' W 005°23'1 2.8
2018-May-07 21:30N 47°45' W 005°24'2 1.3
2018-May-07 20:17N 47°47' W 005°24'1 2.3
2018-May-07 19:46N 47°46' W 005°23'1 2.4
2018-May-07 19:30N 47°46' W 005°22'2 2.4
2018-May-07 18:47N 47°45' W 005°20'2 2.4
2018-May-07 18:08N 47°45' W 005°18'0 2.5
2018-May-07 17:59N 47°45' W 005°17'1 2.5
2018-May-07 17:30N 47°45' W 005°15'2 0.5
2018-May-07 13:46N 47°47' W 005°14'2 0.8
2018-May-07 11:29N 47°46' W 005°11'1 2.1
2018-May-07 11:00N 47°47' W 005°10'3 0.7
2018-May-07 07:01N 47°44' W 005°12'0 5.7
2018-May-07 07:00N 47°44' W 005°12'3 2.1
2018-May-07 05:32N 47°45' W 005°08'0 2.6
2018-May-07 05:28N 47°45' W 005°07'3 2.6
2018-May-07 04:26N 47°45' W 005°03'1 0.6
2018-May-07 02:32N 47°45' W 005°02'0 2.7
2018-May-07 02:23N 47°45' W 005°03'2 0.1
2018-May-06 02:51N 47°45' W 005°06'1 2.1
2018-May-06 02:12N 47°45' W 005°04'1 2.7
2018-May-06 01:54N 47°45' W 005°03'2 3.3
2018-May-06 01:25N 47°45' W 005°00'1 1.3
2018-May-06 00:50N 47°45' W 004°59'2 2.3
2018-May-06 00:06N 47°45' W 005°02'0 2.6
2018-May-05 23:57N 47°45' W 005°02'1 2.5
2018-May-05 23:30N 47°45' W 005°04'1 1.7
2018-May-05 23:01N 47°45' W 005°03'3 0.5
2018-May-05 17:25N 47°45' W 005°07'1 2.6
2018-May-05 16:59N 47°45' W 005°08'33 1.0
2018-May-04 06:48N 47°46' W 004°20'  

Dump ship's entire track history